createdAt,value
2022-11-15T00:00:15.962Z,1.5
2022-11-15T00:01:16.241Z,1.5
2022-11-15T00:02:15.757Z,1.5
2022-11-15T00:03:16.154Z,1.5
2022-11-15T00:04:15.448Z,1.5
2022-11-15T00:05:15.880Z,1.4
2022-11-15T00:06:16.200Z,1.4
2022-11-15T00:07:56.446Z,0
2022-11-15T00:08:15.660Z,1.4
2022-11-15T00:09:16.134Z,1.4
2022-11-15T00:10:15.450Z,1.4
2022-11-15T00:11:15.934Z,1.4
2022-11-15T00:12:14.669Z,1.4
2022-11-15T00:13:15.998Z,1.4
2022-11-15T00:14:15.416Z,1.4
2022-11-15T00:15:15.165Z,1.4
2022-11-15T00:16:15.808Z,1.4
2022-11-15T00:17:16.236Z,1.4
2022-11-15T00:18:15.598Z,1.4
2022-11-15T00:19:16.131Z,1.4
2022-11-15T00:20:16.227Z,1.4
2022-11-15T00:21:16.211Z,1
2022-11-15T00:22:15.579Z,1.4
2022-11-15T00:23:15.971Z,1.4
2022-11-15T00:24:16.269Z,1.4
2022-11-15T00:25:15.596Z,1.4
2022-11-15T00:26:15.943Z,1.4
2022-11-15T00:27:15.531Z,1
2022-11-15T00:28:15.810Z,1.4
2022-11-15T00:29:16.087Z,1.4
2022-11-15T00:30:15.524Z,1.4
2022-11-15T00:31:15.619Z,1.4
2022-11-15T00:32:15.960Z,1.3
2022-11-15T00:33:14.862Z,1.3
2022-11-15T00:34:16.239Z,1.3
2022-11-15T00:35:15.527Z,1.3
2022-11-15T00:36:15.818Z,1.3
2022-11-15T00:37:16.211Z,1.3
2022-11-15T00:38:15.603Z,1.3
2022-11-15T00:39:15.355Z,1.4
2022-11-15T00:40:16.281Z,1.4
2022-11-15T00:41:15.709Z,1.3
2022-11-15T00:42:16.011Z,1.3
2022-11-15T00:43:16.047Z,1.3
2022-11-15T00:44:16.306Z,1.3
2022-11-15T00:45:15.470Z,1.2
2022-11-15T00:46:15.765Z,1
2022-11-15T00:47:16.128Z,1
2022-11-15T00:48:15.694Z,1.2
2022-11-15T00:49:15.766Z,1.2
2022-11-15T00:50:19.476Z,0
2022-11-15T00:51:16.239Z,1.2
2022-11-15T00:52:15.690Z,1.2
2022-11-15T00:53:16.004Z,1.2
2022-11-15T00:54:16.390Z,1.2
2022-11-15T00:55:15.482Z,1.2
2022-11-15T00:56:15.852Z,1.2
2022-11-15T00:57:15.559Z,1.2
2022-11-15T00:58:15.930Z,1.2
2022-11-15T00:59:15.870Z,1.2
2022-11-15T01:00:16.256Z,1.2
2022-11-15T01:01:15.915Z,1.2
2022-11-15T01:02:15.848Z,1.2
2022-11-15T01:03:15.839Z,1.2
2022-11-15T01:04:14.997Z,1.2
2022-11-15T01:05:15.233Z,1.1
2022-11-15T01:06:14.726Z,1.1
2022-11-15T01:07:14.715Z,1.2
2022-11-15T01:08:16.222Z,1.1
2022-11-15T01:09:15.526Z,0
2022-11-15T01:10:15.883Z,1.1
2022-11-15T01:11:16.120Z,1.1
2022-11-15T01:12:15.600Z,1.1
2022-11-15T01:13:15.898Z,1.1
2022-11-15T01:14:16.667Z,1.1
2022-11-15T01:15:16.262Z,1.1
2022-11-15T01:16:15.725Z,1.1
2022-11-15T01:17:16.408Z,1.1
2022-11-15T01:18:15.740Z,1.1
2022-11-15T01:19:15.915Z,1.1
2022-11-15T01:20:16.217Z,1.1
2022-11-15T01:21:15.505Z,1.1
2022-11-15T01:22:15.907Z,1
2022-11-15T01:23:16.283Z,1
2022-11-15T01:24:15.530Z,1
2022-11-15T01:25:15.955Z,1
2022-11-15T01:26:16.368Z,1
2022-11-15T01:27:15.638Z,1
2022-11-15T01:28:15.983Z,1
2022-11-15T01:29:16.351Z,1
2022-11-15T01:30:15.777Z,1
2022-11-15T01:31:15.685Z,1
2022-11-15T01:32:15.122Z,1
2022-11-15T01:33:15.407Z,1
2022-11-15T01:34:15.789Z,1
2022-11-15T01:35:14.925Z,1
2022-11-15T01:36:16.197Z,1
2022-11-15T01:37:15.464Z,1
2022-11-15T01:38:15.722Z,1
2022-11-15T01:39:15.477Z,1
2022-11-15T01:40:15.902Z,1
2022-11-15T01:41:16.223Z,1
2022-11-15T01:42:15.563Z,1
2022-11-15T01:43:16.193Z,1
2022-11-15T01:44:15.710Z,1
2022-11-15T01:45:15.792Z,1
2022-11-15T01:46:15.423Z,0.9
2022-11-15T01:47:16.166Z,0.9
2022-11-15T01:48:16.098Z,0.9
2022-11-15T01:49:16.277Z,0.9
2022-11-15T01:50:15.705Z,0.9
2022-11-15T01:51:16.085Z,0.9
2022-11-15T01:52:16.417Z,0.8
2022-11-15T01:53:16.244Z,0.8
2022-11-15T01:54:15.486Z,0.8
2022-11-15T01:55:15.696Z,0.8
2022-11-15T01:56:15.722Z,0.8
2022-11-15T01:57:15.994Z,0.8
2022-11-15T01:58:16.460Z,0.8
2022-11-15T01:59:15.635Z,0.8
2022-11-15T02:00:16.365Z,0.8
2022-11-15T02:01:16.179Z,0.8
2022-11-15T02:02:16.202Z,0.8
2022-11-15T02:03:15.626Z,0.8
2022-11-15T02:04:16.365Z,0.8
2022-11-15T02:05:15.607Z,0.8
2022-11-15T02:06:15.764Z,0.8
2022-11-15T02:07:15.682Z,0.8
2022-11-15T02:08:15.693Z,0.8
2022-11-15T02:09:14.634Z,0
2022-11-15T02:10:14.679Z,0.8
2022-11-15T02:11:16.380Z,0.8
2022-11-15T02:12:16.382Z,0.8
2022-11-15T02:13:15.781Z,0.8
2022-11-15T02:14:15.507Z,0.9
2022-11-15T02:15:15.894Z,0.8
2022-11-15T02:16:15.909Z,0.8
2022-11-15T02:17:16.241Z,0.9
2022-11-15T02:18:14.963Z,0.9
2022-11-15T02:19:16.285Z,0.8
2022-11-15T02:20:16.080Z,0.8
2022-11-15T02:21:16.419Z,0.8
2022-11-15T02:22:15.816Z,0.8
2022-11-15T02:23:16.186Z,0.8
2022-11-15T02:24:15.496Z,0.8
2022-11-15T02:25:15.861Z,0.8
2022-11-15T02:26:16.292Z,0.8
2022-11-15T02:27:15.648Z,0.8
2022-11-15T02:28:15.564Z,0.7
2022-11-15T02:29:16.126Z,0.7
2022-11-15T02:30:16.349Z,0
2022-11-15T02:31:14.554Z,0.7
2022-11-15T02:32:16.451Z,0.6
2022-11-15T02:33:15.340Z,0.6
2022-11-15T02:34:15.499Z,0.6
2022-11-15T02:35:15.832Z,0.6
2022-11-15T02:36:15.730Z,0.6
2022-11-15T02:37:16.218Z,0.6
2022-11-15T02:38:16.090Z,0.6
2022-11-15T02:39:15.618Z,0.5
2022-11-15T02:40:15.696Z,0.5
2022-11-15T02:41:15.466Z,0.5
2022-11-15T02:42:16.574Z,0.6
2022-11-15T02:43:15.751Z,0
2022-11-15T02:44:15.519Z,0
2022-11-15T02:45:15.777Z,0.5
2022-11-15T02:46:16.058Z,0.5
2022-11-15T02:47:16.338Z,0.5
2022-11-15T02:48:16.072Z,0.5
2022-11-15T02:49:16.395Z,0.5
2022-11-15T02:50:15.724Z,0.5
2022-11-15T02:51:16.119Z,0.5
2022-11-15T02:52:16.115Z,0.5
2022-11-15T02:53:16.440Z,0.5
2022-11-15T02:54:15.869Z,0.5
2022-11-15T02:55:16.228Z,0.6
2022-11-15T02:56:16.404Z,0.5
2022-11-15T02:57:15.880Z,0.5
2022-11-15T02:58:15.870Z,0.6
2022-11-15T02:59:16.293Z,0.6
2022-11-15T03:00:15.198Z,0.5
2022-11-15T03:01:15.591Z,0.5
2022-11-15T03:02:15.413Z,0.5
2022-11-15T03:03:15.813Z,0.6
2022-11-15T03:04:16.089Z,0.6
2022-11-15T03:05:15.908Z,0.5
2022-11-15T03:06:15.504Z,0.5
2022-11-15T03:07:15.924Z,0.5
2022-11-15T03:08:16.361Z,0.5
2022-11-15T03:09:15.892Z,0.6
2022-11-15T03:10:16.154Z,0.6
2022-11-15T03:11:15.556Z,0.6
2022-11-15T03:12:15.452Z,0.6
2022-11-15T03:13:15.812Z,0.6
2022-11-15T03:14:16.157Z,0.6
2022-11-15T03:15:15.471Z,0.6
2022-11-15T03:16:15.926Z,0.6
2022-11-15T03:17:16.455Z,0.6
2022-11-15T03:18:15.875Z,0.6
2022-11-15T03:19:16.105Z,0.6
2022-11-15T03:20:15.497Z,0.6
2022-11-15T03:21:15.978Z,0.6
2022-11-15T03:22:16.128Z,0.6
2022-11-15T03:23:15.500Z,0.6
2022-11-15T03:24:15.061Z,0.6
2022-11-15T03:25:15.483Z,0.7
2022-11-15T03:26:15.822Z,0.7
2022-11-15T03:27:16.287Z,0.7
2022-11-15T03:28:15.903Z,0.7
2022-11-15T03:29:16.016Z,0.6
2022-11-15T03:30:15.783Z,0.6
2022-11-15T03:31:15.414Z,0.6
2022-11-15T03:32:16.026Z,0
2022-11-15T03:33:16.431Z,0.7
2022-11-15T03:34:16.259Z,0.7
2022-11-15T03:35:15.598Z,0.6
2022-11-15T03:36:16.387Z,0.6
2022-11-15T03:37:15.691Z,0.7
2022-11-15T03:38:16.174Z,0.7
2022-11-15T03:39:23.358Z,0.6
2022-11-15T03:40:15.932Z,0.6
2022-11-15T03:41:16.341Z,0.7
2022-11-15T03:42:15.934Z,0.7
2022-11-15T03:43:16.311Z,0.7
2022-11-15T03:44:16.161Z,0.7
2022-11-15T03:45:15.566Z,0.7
2022-11-15T03:46:15.534Z,0.7
2022-11-15T03:47:15.899Z,0.7
2022-11-15T03:48:16.288Z,0.7
2022-11-15T03:49:15.262Z,0.7
2022-11-15T03:50:14.896Z,0.7
2022-11-15T03:51:15.821Z,0.7
2022-11-15T03:52:16.177Z,0.7
2022-11-15T03:53:16.403Z,0
2022-11-15T03:54:15.696Z,0.7
2022-11-15T03:55:15.991Z,0.7
2022-11-15T03:56:15.813Z,0.7
2022-11-15T03:57:16.171Z,0.7
2022-11-15T03:58:15.869Z,0.7
2022-11-15T03:59:16.162Z,0.8
2022-11-15T04:00:15.926Z,0.8
2022-11-15T04:01:16.113Z,0.8
2022-11-15T04:02:16.371Z,0.8
2022-11-15T04:03:15.696Z,0.8
2022-11-15T04:04:16.349Z,0.8
2022-11-15T04:05:15.778Z,0.7
2022-11-15T04:06:15.420Z,0.7
2022-11-15T04:07:17.247Z,0.7
2022-11-15T04:08:15.967Z,0.7
2022-11-15T04:09:16.281Z,0.7
2022-11-15T04:10:15.618Z,0.8
2022-11-15T04:11:15.825Z,0.8
2022-11-15T04:12:16.244Z,0.7
2022-11-15T04:13:15.579Z,0.8
2022-11-15T04:14:16.049Z,0.8
2022-11-15T04:15:15.059Z,0.8
2022-11-15T04:16:15.541Z,0.8
2022-11-15T04:17:15.916Z,0.8
2022-11-15T04:18:16.112Z,0
2022-11-15T04:19:14.716Z,0
2022-11-15T04:20:15.123Z,0.8
2022-11-15T04:21:16.423Z,0.8
2022-11-15T04:22:15.814Z,0.8
2022-11-15T04:23:16.020Z,0
2022-11-15T04:24:15.791Z,0
2022-11-15T04:25:18.435Z,0.8
2022-11-15T04:26:16.363Z,0.9
2022-11-15T04:27:16.003Z,0.9
2022-11-15T04:28:16.220Z,0.8
2022-11-15T04:29:16.096Z,0.8
2022-11-15T04:30:16.088Z,0.9
2022-11-15T04:31:16.207Z,0.9
2022-11-15T04:32:15.560Z,0
2022-11-15T04:33:16.245Z,0
2022-11-15T04:34:15.653Z,0.9
2022-11-15T04:35:16.128Z,0.9
2022-11-15T04:36:15.369Z,0.9
2022-11-15T04:37:16.126Z,0.9
2022-11-15T04:38:15.490Z,0.9
2022-11-15T04:39:16.019Z,0.9
2022-11-15T04:40:16.329Z,0.9
2022-11-15T04:41:15.811Z,0.9
2022-11-15T04:42:16.218Z,0.9
2022-11-15T04:43:15.444Z,0.9
2022-11-15T04:44:15.907Z,1
2022-11-15T04:45:14.987Z,1
2022-11-15T04:46:15.845Z,1
2022-11-15T04:47:15.798Z,1
2022-11-15T04:48:16.102Z,1
2022-11-15T04:49:15.983Z,1
2022-11-15T04:50:16.450Z,0.9
2022-11-15T04:51:16.348Z,0.9
2022-11-15T04:52:16.163Z,1
2022-11-15T04:53:16.156Z,1
2022-11-15T04:54:15.509Z,1
2022-11-15T04:55:16.159Z,1
2022-11-15T04:56:16.103Z,1
2022-11-15T04:57:16.056Z,1
2022-11-15T04:58:16.416Z,1
2022-11-15T04:59:15.831Z,1
2022-11-15T05:00:16.131Z,0.9
2022-11-15T05:01:16.160Z,0.9
2022-11-15T05:02:16.245Z,0.9
2022-11-15T05:03:15.713Z,0.9
2022-11-15T05:04:15.868Z,0.9
2022-11-15T05:05:15.949Z,0.9
2022-11-15T05:06:16.324Z,0.9
2022-11-15T05:07:15.767Z,0.9
2022-11-15T05:08:14.875Z,0.9
2022-11-15T05:09:16.409Z,0.9
2022-11-15T05:10:15.843Z,0.9
2022-11-15T05:11:16.206Z,0.9
2022-11-15T05:12:15.827Z,0.9
2022-11-15T05:13:16.157Z,0.8
2022-11-15T05:14:15.654Z,0.9
2022-11-15T05:15:15.755Z,0.9
2022-11-15T05:16:16.284Z,0
2022-11-15T05:17:15.685Z,0.9
2022-11-15T05:18:19.482Z,0.8
2022-11-15T05:19:15.752Z,0.8
2022-11-15T05:20:15.621Z,0.8
2022-11-15T05:21:16.014Z,0.8
2022-11-15T05:22:16.339Z,0.8
2022-11-15T05:23:15.751Z,0.8
2022-11-15T05:24:16.037Z,0.8
2022-11-15T05:25:16.513Z,0.8
2022-11-15T05:26:15.907Z,0.8
2022-11-15T05:27:16.098Z,0.8
2022-11-15T05:28:15.401Z,0.8
2022-11-15T05:29:15.971Z,0.8
2022-11-15T05:30:15.284Z,0.8
2022-11-15T05:31:15.495Z,0.8
2022-11-15T05:32:15.506Z,0.8
2022-11-15T05:33:15.268Z,0.8
2022-11-15T05:34:15.837Z,0.8
2022-11-15T05:35:16.037Z,0.8
2022-11-15T05:36:15.936Z,0.8
2022-11-15T05:37:16.340Z,0.8
2022-11-15T05:38:15.687Z,0.8
2022-11-15T05:39:15.515Z,0.8
2022-11-15T05:40:16.461Z,0
2022-11-15T05:41:15.831Z,0.8
2022-11-15T05:42:15.724Z,0.8
2022-11-15T05:43:16.080Z,0.7
2022-11-15T05:44:16.336Z,0.7
2022-11-15T05:45:15.769Z,0.7
2022-11-15T05:46:15.953Z,0.7
2022-11-15T05:47:16.312Z,0.7
2022-11-15T05:48:15.638Z,0.7
2022-11-15T05:49:16.054Z,0.7
2022-11-15T05:50:16.396Z,0.7
2022-11-15T05:51:15.806Z,0
2022-11-15T05:52:16.124Z,0
2022-11-15T05:53:16.300Z,0.7
2022-11-15T05:54:15.862Z,0.7
2022-11-15T05:55:15.978Z,0.7
2022-11-15T05:56:16.392Z,0.7
2022-11-15T05:57:15.505Z,0.7
2022-11-15T05:58:16.118Z,0.6
2022-11-15T05:59:14.770Z,0.6
2022-11-15T06:00:15.784Z,0.6
2022-11-15T06:01:15.503Z,0.6
2022-11-15T06:02:15.962Z,0.6
2022-11-15T06:03:16.134Z,0.6
2022-11-15T06:04:16.092Z,0.6
2022-11-15T06:05:16.391Z,0.6
2022-11-15T06:06:20.570Z,0.6
2022-11-15T06:07:16.172Z,0.6
2022-11-15T06:08:16.087Z,0.6
2022-11-15T06:09:16.430Z,0.6
2022-11-15T06:10:15.855Z,0.6
2022-11-15T06:11:16.223Z,0.6
2022-11-15T06:12:15.562Z,0.6
2022-11-15T06:13:15.942Z,0.6
2022-11-15T06:14:16.204Z,0.6
2022-11-15T06:15:15.540Z,0.6
2022-11-15T06:16:15.884Z,0.6
2022-11-15T06:17:16.175Z,0.5
2022-11-15T06:18:15.590Z,0.5
2022-11-15T06:19:16.232Z,0.5
2022-11-15T06:20:15.526Z,0.5
2022-11-15T06:21:15.478Z,0.5
2022-11-15T06:22:15.447Z,0.5
2022-11-15T06:23:15.050Z,0.5
2022-11-15T06:24:16.180Z,0.5
2022-11-15T06:25:16.390Z,0.5
2022-11-15T06:26:16.513Z,0.5
2022-11-15T06:27:15.885Z,0
2022-11-15T06:28:15.568Z,0.5
2022-11-15T06:29:16.399Z,0.5
2022-11-15T06:30:15.830Z,0.5
2022-11-15T06:31:15.860Z,0.5
2022-11-15T06:32:15.592Z,0.5
2022-11-15T06:33:16.032Z,0.5
2022-11-15T06:34:15.405Z,0.5
2022-11-15T06:35:15.935Z,0.6
2022-11-15T06:36:21.617Z,0.6
2022-11-15T06:37:15.585Z,0.5
2022-11-15T06:38:16.000Z,0.6
2022-11-15T06:39:16.340Z,0.6
2022-11-15T06:40:15.606Z,0.6
2022-11-15T06:41:15.913Z,0.5
2022-11-15T06:42:16.379Z,0.6
2022-11-15T06:43:15.717Z,0.6
2022-11-15T06:44:15.960Z,0.5
2022-11-15T06:45:16.374Z,0.6
2022-11-15T06:46:15.674Z,0.5
2022-11-15T06:47:14.843Z,0.6
2022-11-15T06:48:16.292Z,0.5
2022-11-15T06:49:14.834Z,0.5
2022-11-15T06:50:16.497Z,0.6
2022-11-15T06:51:15.874Z,0.6
2022-11-15T06:52:15.869Z,0.6
2022-11-15T06:53:15.553Z,0.6
2022-11-15T06:54:16.434Z,0.6
2022-11-15T06:55:16.011Z,0.6
2022-11-15T06:56:15.785Z,0.5
2022-11-15T06:57:16.397Z,0.6
2022-11-15T06:58:16.159Z,0.6
2022-11-15T06:59:15.620Z,0.5
2022-11-15T07:00:15.912Z,0.6
2022-11-15T07:01:16.573Z,0.6
2022-11-15T07:02:15.661Z,0
2022-11-15T07:03:15.706Z,0.6
2022-11-15T07:04:16.061Z,0.6
2022-11-15T07:05:16.120Z,0.6
2022-11-15T07:06:15.672Z,0.6
2022-11-15T07:07:16.163Z,0.7
2022-11-15T07:08:16.221Z,0.7
2022-11-15T07:09:16.054Z,0.7
2022-11-15T07:10:16.447Z,0.8
2022-11-15T07:11:15.767Z,0.8
2022-11-15T07:12:15.479Z,0.8
2022-11-15T07:13:16.460Z,0.8
2022-11-15T07:14:14.570Z,0
2022-11-15T07:15:15.699Z,0.8
2022-11-15T07:16:16.068Z,0
2022-11-15T07:17:16.350Z,0.9
2022-11-15T07:18:16.567Z,0.9
2022-11-15T07:19:16.470Z,0.9
2022-11-15T07:20:16.461Z,0.9
2022-11-15T07:21:16.476Z,0.9
2022-11-15T07:22:15.790Z,1
2022-11-15T07:23:16.405Z,1.1
2022-11-15T07:24:15.762Z,1
2022-11-15T07:25:15.957Z,1
2022-11-15T07:26:15.960Z,1
2022-11-15T07:27:15.820Z,1.1
2022-11-15T07:28:16.416Z,1.1
2022-11-15T07:29:15.795Z,1.1
2022-11-15T07:30:19.537Z,1.2
2022-11-15T07:31:16.518Z,1.2
2022-11-15T07:32:15.861Z,1.2
2022-11-15T07:33:15.926Z,1.2
2022-11-15T07:34:16.282Z,1.2
2022-11-15T07:35:15.451Z,1.3
2022-11-15T07:36:15.860Z,1.3
2022-11-15T07:37:15.765Z,1
2022-11-15T07:38:16.048Z,1.4
2022-11-15T07:39:14.581Z,1.4
2022-11-15T07:40:16.443Z,1.4
2022-11-15T07:41:16.222Z,1.4
2022-11-15T07:42:16.478Z,1.5
2022-11-15T07:43:15.829Z,1.5
2022-11-15T07:44:15.882Z,1.6
2022-11-15T07:45:15.994Z,1.6
2022-11-15T07:46:16.343Z,1.6
2022-11-15T07:47:16.305Z,1.6
2022-11-15T07:48:15.743Z,1.6
2022-11-15T07:49:15.828Z,1.6
2022-11-15T07:50:16.155Z,1.7
2022-11-15T07:51:18.512Z,1.8
2022-11-15T07:52:15.635Z,1.8
2022-11-15T07:53:16.160Z,1.8
2022-11-15T07:54:16.497Z,1.8
2022-11-15T07:55:15.752Z,1.9
2022-11-15T07:56:16.138Z,1.9
2022-11-15T07:57:16.502Z,1.9
2022-11-15T07:58:15.771Z,2
2022-11-15T07:59:16.159Z,2
2022-11-15T08:00:15.610Z,2
2022-11-15T08:01:16.922Z,2
2022-11-15T08:02:16.973Z,2.1
2022-11-15T08:03:15.765Z,2.1
2022-11-15T08:04:14.607Z,2.2
2022-11-15T08:05:15.670Z,2.2
2022-11-15T08:06:16.143Z,2.2
2022-11-15T08:07:16.291Z,2.3
2022-11-15T08:08:15.723Z,2.3
2022-11-15T08:09:15.528Z,2.4
2022-11-15T08:10:15.679Z,2.4
2022-11-15T08:11:16.159Z,2.4
2022-11-15T08:12:16.507Z,2.5
2022-11-15T08:13:15.799Z,2.5
2022-11-15T08:14:16.400Z,2.6
2022-11-15T08:15:16.265Z,2.6
2022-11-15T08:16:16.407Z,2.8
2022-11-15T08:17:15.645Z,2.8
2022-11-15T08:18:16.011Z,2.8
2022-11-15T08:19:16.389Z,2.8
2022-11-15T08:20:15.690Z,3
2022-11-15T08:21:22.218Z,3.1
2022-11-15T08:22:16.383Z,3.1
2022-11-15T08:23:15.681Z,3.1
2022-11-15T08:24:16.083Z,3.2
2022-11-15T08:25:16.471Z,3.3
2022-11-15T08:26:15.769Z,3.3
2022-11-15T08:27:15.721Z,3.3
2022-11-15T08:28:15.852Z,3.5
2022-11-15T08:29:15.179Z,3.6
2022-11-15T08:30:15.588Z,3.7
2022-11-15T08:31:16.293Z,3.7
2022-11-15T08:32:14.854Z,3.8
2022-11-15T08:33:16.059Z,3.9
2022-11-15T08:34:15.650Z,4
2022-11-15T08:35:16.099Z,4
2022-11-15T08:36:15.861Z,4.2
2022-11-15T08:37:15.987Z,4.2
2022-11-15T08:38:15.658Z,4.3
2022-11-15T08:39:15.990Z,4.4
2022-11-15T08:40:16.468Z,4.4
2022-11-15T08:41:16.284Z,4.4
2022-11-15T08:42:22.359Z,4.5
2022-11-15T08:43:15.976Z,4.5
2022-11-15T08:44:16.341Z,4.6
2022-11-15T08:45:15.797Z,4.8
2022-11-15T08:46:16.089Z,4
2022-11-15T08:47:16.257Z,4.9
2022-11-15T08:48:15.723Z,6
2022-11-15T08:49:15.901Z,5.2
2022-11-15T08:50:16.251Z,5.2
2022-11-15T08:51:15.738Z,6
2022-11-15T08:52:16.110Z,6
2022-11-15T08:53:16.516Z,5.6
2022-11-15T08:54:15.059Z,5.6
2022-11-15T08:55:16.849Z,5.7
2022-11-15T08:56:16.231Z,5.8
2022-11-15T08:57:15.566Z,6
2022-11-15T08:58:15.979Z,6
2022-11-15T08:59:16.318Z,6
2022-11-15T09:00:16.143Z,6
2022-11-15T09:01:20.956Z,6.2
2022-11-15T09:02:16.220Z,6.3
2022-11-15T09:03:15.826Z,6.4
2022-11-15T09:04:16.297Z,6.5
2022-11-15T09:05:15.489Z,6.5
2022-11-15T09:06:16.228Z,6.5
2022-11-15T09:07:16.768Z,6.6
2022-11-15T09:08:50.265Z,6.7
2022-11-15T09:09:16.348Z,6.8
2022-11-15T09:10:15.609Z,7
2022-11-15T09:11:15.998Z,7
2022-11-15T09:12:16.409Z,7.2
2022-11-15T09:13:16.375Z,7.2
2022-11-15T09:14:15.672Z,7.2
2022-11-15T09:15:16.061Z,7.5
2022-11-15T09:16:16.047Z,7.5
2022-11-15T09:17:19.183Z,7.6
2022-11-15T09:18:16.008Z,7.6
2022-11-15T09:19:16.494Z,7.7
2022-11-15T09:20:15.753Z,7.7
2022-11-15T09:21:15.871Z,7.8
2022-11-15T09:22:16.354Z,7.9
2022-11-15T09:23:16.025Z,8
2022-11-15T09:24:16.098Z,8.1
2022-11-15T09:25:16.388Z,8.1
2022-11-15T09:26:15.754Z,8.2
2022-11-15T09:27:16.430Z,8.2
2022-11-15T09:28:15.952Z,8.4
2022-11-15T09:29:15.748Z,8.4
2022-11-15T09:30:16.443Z,8.5
2022-11-15T09:31:21.083Z,8.6
2022-11-15T09:32:15.552Z,8.6
2022-11-15T09:33:16.285Z,8.8
2022-11-15T09:34:15.636Z,9
2022-11-15T09:35:15.883Z,9
2022-11-15T09:36:16.276Z,9
2022-11-15T09:37:15.911Z,9
2022-11-15T09:38:16.260Z,9.2
2022-11-15T09:39:15.552Z,9.3
2022-11-15T09:40:16.016Z,9.4
2022-11-15T09:41:15.985Z,9.5
2022-11-15T09:42:16.453Z,9.5
2022-11-15T09:43:15.810Z,9.6
2022-11-15T09:44:14.730Z,9.6
2022-11-15T09:45:14.910Z,9
2022-11-15T09:46:16.429Z,9
2022-11-15T09:47:16.198Z,9.9
2022-11-15T09:48:16.584Z,10
2022-11-15T09:49:16.237Z,10.1
2022-11-15T09:50:15.460Z,10.2
2022-11-15T09:51:16.047Z,10.3
2022-11-15T09:52:15.933Z,10.3
2022-11-15T09:53:15.500Z,10.4
2022-11-15T09:54:57.596Z,10.4
2022-11-15T09:56:15.810Z,10.5
2022-11-15T09:57:20.162Z,10.6
2022-11-15T09:58:16.237Z,9
2022-11-15T09:59:16.378Z,9
2022-11-15T10:00:54.433Z,10.8
2022-11-15T10:02:15.895Z,11.1
2022-11-15T10:03:16.243Z,11.2
2022-11-15T10:04:16.324Z,11.2
2022-11-15T10:05:16.293Z,11.4
2022-11-15T10:06:16.264Z,11.4
2022-11-15T10:07:15.852Z,11.5
2022-11-15T10:08:15.842Z,11.5
2022-11-15T10:09:15.956Z,11.6
2022-11-15T10:10:16.001Z,10
2022-11-15T10:11:44.844Z,11.7
2022-11-15T10:12:15.666Z,11.7
2022-11-15T10:13:15.020Z,11.8
2022-11-15T10:14:16.657Z,11.8
2022-11-15T10:15:15.918Z,11.8
2022-11-15T10:16:16.016Z,11.9
2022-11-15T10:17:16.318Z,11.9
2022-11-15T10:18:15.607Z,12.1
2022-11-15T10:19:15.966Z,12.1
2022-11-15T10:20:16.313Z,12.3
2022-11-15T10:21:15.956Z,12.3
2022-11-15T10:22:16.283Z,11
2022-11-15T10:23:16.487Z,11
2022-11-15T10:24:15.941Z,12.4
2022-11-15T10:25:15.932Z,12.6
2022-11-15T10:26:16.195Z,12.7
2022-11-15T10:27:16.929Z,12.7
2022-11-15T10:28:15.962Z,12.8
2022-11-15T10:29:16.539Z,12.9
2022-11-15T10:30:15.995Z,13
2022-11-15T10:31:19.592Z,13.1
2022-11-15T10:32:15.868Z,13.2
2022-11-15T10:33:16.228Z,13.4
2022-11-15T10:34:16.051Z,13.4
2022-11-15T10:35:16.299Z,13.6
2022-11-15T10:36:15.137Z,13.6
2022-11-15T10:37:16.548Z,13.7
2022-11-15T10:38:16.421Z,13.9
2022-11-15T10:39:15.905Z,14
2022-11-15T10:40:16.100Z,14
2022-11-15T10:41:15.625Z,14
2022-11-15T10:42:21.843Z,14.2
2022-11-15T10:43:15.681Z,14.2
2022-11-15T10:44:15.995Z,14.3
2022-11-15T10:45:15.748Z,14.3
2022-11-15T10:46:50.037Z,14.4
2022-11-15T10:48:16.206Z,12
2022-11-15T10:49:16.309Z,14.5
2022-11-15T10:50:15.656Z,14.7
2022-11-15T10:51:16.185Z,14.7
2022-11-15T10:52:16.420Z,14.7
2022-11-15T10:53:15.883Z,14.8
2022-11-15T10:54:23.362Z,14.8
2022-11-15T10:55:15.504Z,14.8
2022-11-15T10:56:15.018Z,12
2022-11-15T10:57:16.091Z,12
2022-11-15T10:58:16.785Z,14.9
2022-11-15T10:59:15.836Z,12
2022-11-15T11:00:16.367Z,15.1
2022-11-15T11:01:16.662Z,15.2
2022-11-15T11:02:15.854Z,15.3
2022-11-15T11:03:15.391Z,15.4
2022-11-15T11:04:14.722Z,15.5
2022-11-15T11:05:16.483Z,15.5
2022-11-15T11:06:16.515Z,15.5
2022-11-15T11:07:16.073Z,15.8
2022-11-15T11:08:16.493Z,15.8
2022-11-15T11:09:16.064Z,13
2022-11-15T11:10:57.333Z,16.2
2022-11-15T11:11:16.452Z,16.2
2022-11-15T11:12:16.434Z,16.2
2022-11-15T11:13:15.948Z,16.4
2022-11-15T11:14:16.398Z,16.5
2022-11-15T11:15:16.298Z,16.6
2022-11-15T11:16:15.527Z,16.6
2022-11-15T11:17:15.811Z,16.6
2022-11-15T11:18:14.539Z,16.7
2022-11-15T11:19:16.128Z,16.7
2022-11-15T11:20:15.752Z,16.7
2022-11-15T11:21:16.139Z,16.8
2022-11-15T11:22:16.478Z,16.9
2022-11-15T11:23:15.777Z,16.9
2022-11-15T11:24:16.067Z,16.8
2022-11-15T11:25:16.480Z,16.9
2022-11-15T11:26:15.760Z,16.9
2022-11-15T11:27:16.103Z,16.9
2022-11-15T11:28:16.181Z,16.8
2022-11-15T11:29:16.121Z,16.9
2022-11-15T11:30:16.128Z,16.8
2022-11-15T11:31:15.297Z,16.8
2022-11-15T11:32:16.631Z,13
2022-11-15T11:33:16.433Z,14
2022-11-15T11:34:16.093Z,16.7
2022-11-15T11:35:15.905Z,16.7
2022-11-15T11:36:16.508Z,16.7
2022-11-15T11:37:15.848Z,16.6
2022-11-15T11:38:19.900Z,16.6
2022-11-15T11:39:15.603Z,16.5
2022-11-15T11:40:16.097Z,16.5
2022-11-15T11:41:16.237Z,16.4
2022-11-15T11:42:16.522Z,16.4
2022-11-15T11:43:15.850Z,16.3
2022-11-15T11:44:15.664Z,16.3
2022-11-15T11:45:16.061Z,16.2
2022-11-15T11:46:15.655Z,16.2
2022-11-15T11:47:16.137Z,16.1
2022-11-15T11:48:16.448Z,16
2022-11-15T11:49:15.647Z,16
2022-11-15T11:50:15.712Z,16
2022-11-15T11:51:16.034Z,15.9
2022-11-15T11:52:16.322Z,15.8
2022-11-15T11:53:15.634Z,15.7
2022-11-15T11:54:16.174Z,15.6
2022-11-15T11:55:15.134Z,15.6
2022-11-15T11:56:14.930Z,15.6
2022-11-15T11:57:16.246Z,15.4
2022-11-15T11:58:15.662Z,15.4
2022-11-15T11:59:15.992Z,15.3
2022-11-15T12:00:16.060Z,15.3
2022-11-15T12:01:17.272Z,15.2
2022-11-15T12:02:16.552Z,15.1
2022-11-15T12:03:16.886Z,15.1
2022-11-15T12:04:16.220Z,15.1
2022-11-15T12:05:15.692Z,15.1
2022-11-15T12:06:16.035Z,15.1
2022-11-15T12:07:16.722Z,15
2022-11-15T12:08:15.719Z,15
2022-11-15T12:09:16.181Z,14.8
2022-11-15T12:10:16.668Z,14.8
2022-11-15T12:11:15.994Z,14.7
2022-11-15T12:12:15.515Z,14.7
2022-11-15T12:13:15.984Z,14.7
2022-11-15T12:14:16.424Z,14.6
2022-11-15T12:15:15.820Z,14.6
2022-11-15T12:16:15.773Z,14.6
2022-11-15T12:17:16.091Z,14.5
2022-11-15T12:18:16.596Z,14.5
2022-11-15T12:19:15.730Z,15
2022-11-15T12:20:16.309Z,14.4
2022-11-15T12:21:16.534Z,14.4
2022-11-15T12:22:15.942Z,14.3
2022-11-15T12:23:16.153Z,14.3
2022-11-15T12:24:14.894Z,14.3
2022-11-15T12:25:16.523Z,14.2
2022-11-15T12:26:15.928Z,14.2
2022-11-15T12:27:16.115Z,14.2
2022-11-15T12:28:16.251Z,14.2
2022-11-15T12:29:16.315Z,14.2
2022-11-15T12:30:15.818Z,14.2
2022-11-15T12:31:15.644Z,14.2
2022-11-15T12:32:16.123Z,14.1
2022-11-15T12:33:16.392Z,14
2022-11-15T12:34:16.381Z,14
2022-11-15T12:35:16.119Z,14
2022-11-15T12:36:15.861Z,14
2022-11-15T12:37:16.294Z,13.9
2022-11-15T12:38:15.680Z,13.9
2022-11-15T12:39:16.042Z,13.9
2022-11-15T12:40:16.409Z,13.9
2022-11-15T12:41:15.612Z,13.9
2022-11-15T12:42:16.380Z,13.9
2022-11-15T12:43:15.748Z,16
2022-11-15T12:44:15.883Z,16
2022-11-15T12:45:16.313Z,13.8
2022-11-15T12:46:15.429Z,13.7
2022-11-15T12:47:18.280Z,13.7
2022-11-15T12:48:16.451Z,13.7
2022-11-15T12:49:16.085Z,13.6
2022-11-15T12:50:16.654Z,13.6
2022-11-15T12:51:15.817Z,13.6
2022-11-15T12:52:15.708Z,13.6
2022-11-15T12:53:16.499Z,13.6
2022-11-15T12:54:15.725Z,13.6
2022-11-15T12:55:16.054Z,13.6
2022-11-15T12:56:16.522Z,15
2022-11-15T12:57:15.906Z,13.6
2022-11-15T12:58:16.280Z,13.6
2022-11-15T12:59:15.605Z,15
2022-11-15T13:00:16.029Z,13.6
2022-11-15T13:01:15.994Z,13.6
2022-11-15T13:02:16.092Z,13.6
2022-11-15T13:03:16.534Z,13.6
2022-11-15T13:04:15.828Z,13.6
2022-11-15T13:05:16.110Z,13.6
2022-11-15T13:06:16.586Z,13.6
2022-11-15T13:07:16.030Z,13.6
2022-11-15T13:08:16.146Z,13.6
2022-11-15T13:09:15.752Z,13.6
2022-11-15T13:10:15.631Z,13.6
2022-11-15T13:11:15.936Z,13.6
2022-11-15T13:12:16.410Z,13.6
2022-11-15T13:13:15.725Z,13.6
2022-11-15T13:14:16.054Z,13.6
2022-11-15T13:15:15.772Z,13.6
2022-11-15T13:16:16.637Z,13.6
2022-11-15T13:17:16.049Z,13.6
2022-11-15T13:18:16.536Z,13.6
2022-11-15T13:19:16.581Z,13.6
2022-11-15T13:20:16.096Z,15
2022-11-15T13:21:16.286Z,13.5
2022-11-15T13:22:15.752Z,15
2022-11-15T13:23:16.041Z,15
2022-11-15T13:24:16.356Z,13.5
2022-11-15T13:25:15.579Z,13.5
2022-11-15T13:26:16.375Z,13.5
2022-11-15T13:27:16.428Z,13.5
2022-11-15T13:28:15.774Z,15
2022-11-15T13:29:15.998Z,15
2022-11-15T13:30:16.256Z,15
2022-11-15T13:31:16.375Z,13.4
2022-11-15T13:32:15.622Z,13.4
2022-11-15T13:33:15.811Z,13.3
2022-11-15T13:34:55.659Z,13.3
2022-11-15T13:35:16.433Z,13.3
2022-11-15T13:36:15.887Z,13.3
2022-11-15T13:37:15.304Z,13.3
2022-11-15T13:38:15.352Z,13.2
2022-11-15T13:39:16.002Z,13.2
2022-11-15T13:40:15.070Z,13.2
2022-11-15T13:41:16.191Z,13.2
2022-11-15T13:42:16.296Z,13.2
2022-11-15T13:43:16.100Z,13.2
2022-11-15T13:44:15.930Z,13.2
2022-11-15T13:45:16.044Z,13.1
2022-11-15T13:46:16.627Z,13.1
2022-11-15T13:47:16.570Z,13.1
2022-11-15T13:48:15.834Z,13.1
2022-11-15T13:49:16.278Z,13.1